Terminal Aerodrome Forecast
Issued by NWS

Home | Current Version | Previous Version | Text Only | Print | Product List | Glossary On
Versions: 1 2 3 4 5 6 7 8 9 10 11 12 13 14 15 16 17 18 19 20 21 22 23
183
FTUS43 KDLH 231407 AAA
TAFHYR
TAF AMD
KHYR 231407Z 2314/2412 16011KT P6SM SCT035 BKN250
     FM231500 18014G21KT P6SM SCT040 BKN250
     FM231900 19012G21KT P6SM BKN045 BKN150
      TEMPO 2320/2324 4SM TSRA SCT015 BKN030CB
     FM240000 19010G17KT P6SM VCTS BKN040CB
     FM240300 19003KT P6SM VCSH SCT030 BKN050
     FM240700 VRB03KT 2SM BR SCT003=

USA.gov is the U.S. government's official web portal to all federal, state and local government web resources and services.